Guangzhou Baiyun International Airport
ZGGG : now visible

Airfield :











YOU CAN JOIN US ON...

 
LOGIN :

Register | Disclaimer

   EN    FR    IT 

 









Legend :    VFR   Marginal VFR   IFR   Intensive IFR   Very Intensive IFR
Visi :
Ceiling :
>= 8 km
>= 3000ft
5 to 8 km
1000 to 3000 ft
1500m to 5 km
500 to 1000 ft
800 to 1500m
200 to 500 ft
< 800m
< 200 ft
Symbols :   Thunderstorms  Fog  Heavy snow  Heavy precipitations  Wind > 20 kt






- Airport Elevation : 50 ft
- IATA code : CAN


ZGGG - Guangzhou Baiyun International

CURRENT METAR :
  • 170430Z 15004MPS 120V180 9999 SCT026 33/28 Q1005 NOSIG

EXPIRED METARs :
  • 170400Z 16005MPS 140V200 9999 BKN026 33/29 Q1006 NOSIG
  • 170330Z 20004MPS 170V240 9999 BKN023 33/28 Q1006 NOSIG
  • 170300Z 18003MPS 150V210 9999 BKN023 32/29 Q1006 RESHRA NOSIG
  • 170243Z 18002MPS 9999 SHRA FEW020CB BKN023 30/29 Q1006 BECMG AT0300 NSW
  • 170230Z 17002MPS 130V210 9999 BKN020 31/28 Q1006 NOSIG
  • 170200Z 18003MPS 9999 BKN020 31/28 Q1006 NOSIG
  • 170130Z 16004MPS 130V190 9999 BKN020 30/28 Q1007 NOSIG
  • 170100Z 16004MPS 9999 BKN020 30/28 Q1006 NOSIG
  • 170030Z 14004MPS 9999 BKN020 29/28 Q1006 NOSIG
  • 170000Z 12002MPS 080V180 9999 SCT013 BKN030 29/28 Q1006 NOSIG
  • 162330Z VRB01MPS 9999 SCT013 BKN026 28/28 Q1006 NOSIG

TAF TAF ZGGG
Valid from the 17 at 00:00 until the 18 at 00:00 UTC


162112Z 1700/1724 16003MPS 6000 BKN026 TX33/1707Z TN25/1722Z
TEMPO 1706/1712 TSRA SCT026CB BKN030
ZGZU FIR / Asia



MET'MAP, your aeronautical weather chart ! - Copyright ORBIFLY December 2007 - Disclaimer

ORBIFLY MET'MAP TEAM :

Programming & Development : Alexandra Zaïnal
Original concept : Baudouin d'Aumeries
Technical & hardware support : Manuel Goepfert
Assistance : Marc-Olivier Méhu




SOURCES & CREDITS :

   NOAA       Earth
Advisory